sensor_id;sensor_type;location;lat;lon;timestamp;temperature;humidity
64961;SHT31;51487;52.266;10.542;2023-03-17T00:01:07;5.95;68.20
64961;SHT31;51487;52.266;10.542;2023-03-17T00:03:39;6.05;68.18
64961;SHT31;51487;52.266;10.542;2023-03-17T00:06:29;6.03;68.20
64961;SHT31;51487;52.266;10.542;2023-03-17T00:08:56;6.08;68.41
64961;SHT31;51487;52.266;10.542;2023-03-17T00:11:22;6.05;68.14
64961;SHT31;51487;52.266;10.542;2023-03-17T00:13:48;6.02;68.22
64961;SHT31;51487;52.266;10.542;2023-03-17T00:16:24;5.97;68.43
64961;SHT31;51487;52.266;10.542;2023-03-17T00:18:52;5.99;68.48
64961;SHT31;51487;52.266;10.542;2023-03-17T00:21:29;5.92;68.46
64961;SHT31;51487;52.266;10.542;2023-03-17T00:23:56;5.98;68.60
64961;SHT31;51487;52.266;10.542;2023-03-17T00:26:22;5.94;68.49
64961;SHT31;51487;52.266;10.542;2023-03-17T00:28:49;5.97;68.61
64961;SHT31;51487;52.266;10.542;2023-03-17T00:31:21;6.01;68.34
64961;SHT31;51487;52.266;10.542;2023-03-17T00:33:50;6.06;68.44
64961;SHT31;51487;52.266;10.542;2023-03-17T00:36:30;6.12;68.76
64961;SHT31;51487;52.266;10.542;2023-03-17T00:38:58;6.18;68.38
64961;SHT31;51487;52.266;10.542;2023-03-17T00:41:24;6.06;68.83
64961;SHT31;51487;52.266;10.542;2023-03-17T00:43:51;5.91;69.14
64961;SHT31;51487;52.266;10.542;2023-03-17T00:46:28;5.97;69.47
64961;SHT31;51487;52.266;10.542;2023-03-17T00:49:02;6.01;69.27
64961;SHT31;51487;52.266;10.542;2023-03-17T00:51:28;5.87;69.29
64961;SHT31;51487;52.266;10.542;2023-03-17T00:53:55;5.79;69.34
64961;SHT31;51487;52.266;10.542;2023-03-17T00:56:21;5.85;69.18
64961;SHT31;51487;52.266;10.542;2023-03-17T00:58:48;5.78;69.51
64961;SHT31;51487;52.266;10.542;2023-03-17T01:01:13;5.82;69.71
64961;SHT31;51487;52.266;10.542;2023-03-17T01:03:40;5.72;69.65
64961;SHT31;51487;52.266;10.542;2023-03-17T01:06:10;5.67;69.80
64961;SHT31;51487;52.266;10.542;2023-03-17T01:08:38;5.64;70.15
64961;SHT31;51487;52.266;10.542;2023-03-17T01:11:05;5.71;70.04
64961;SHT31;51487;52.266;10.542;2023-03-17T01:13:32;5.61;70.44
64961;SHT31;51487;52.266;10.542;2023-03-17T01:15:57;5.65;70.37
64961;SHT31;51487;52.266;10.542;2023-03-17T01:18:23;5.65;70.43
64961;SHT31;51487;52.266;10.542;2023-03-17T01:20:49;5.61;70.24
64961;SHT31;51487;52.266;10.542;2023-03-17T01:23:16;5.65;70.16
64961;SHT31;51487;52.266;10.542;2023-03-17T01:25:42;5.61;70.16
64961;SHT31;51487;52.266;10.542;2023-03-17T01:28:14;5.61;70.45
64961;SHT31;51487;52.266;10.542;2023-03-17T01:30:41;5.57;70.54
64961;SHT31;51487;52.266;10.542;2023-03-17T01:33:09;5.52;70.65
64961;SHT31;51487;52.266;10.542;2023-03-17T01:35:36;5.52;70.79
64961;SHT31;51487;52.266;10.542;2023-03-17T01:38:04;5.52;71.04
64961;SHT31;51487;52.266;10.542;2023-03-17T01:40:37;5.52;71.06
64961;SHT31;51487;52.266;10.542;2023-03-17T01:48:57;5.58;71.00
64961;SHT31;51487;52.266;10.542;2023-03-17T01:51:34;5.55;70.92
64961;SHT31;51487;52.266;10.542;2023-03-17T01:54:09;5.54;71.23
64961;SHT31;51487;52.266;10.542;2023-03-17T01:56:39;5.65;71.24
64961;SHT31;51487;52.266;10.542;2023-03-17T01:59:10;5.65;71.02
64961;SHT31;51487;52.266;10.542;2023-03-17T02:01:43;5.68;71.32
64961;SHT31;51487;52.266;10.542;2023-03-17T02:04:11;5.62;71.31
64961;SHT31;51487;52.266;10.542;2023-03-17T02:06:37;5.55;71.69
64961;SHT31;51487;52.266;10.542;2023-03-17T02:09:03;5.52;71.85
64961;SHT31;51487;52.266;10.542;2023-03-17T02:11:30;5.51;71.96
64961;SHT31;51487;52.266;10.542;2023-03-17T02:13:56;5.57;71.72
64961;SHT31;51487;52.266;10.542;2023-03-17T02:16:22;5.55;71.94
64961;SHT31;51487;52.266;10.542;2023-03-17T02:18:48;5.58;72.04
64961;SHT31;51487;52.266;10.542;2023-03-17T02:21:43;5.50;72.02
64961;SHT31;51487;52.266;10.542;2023-03-17T02:24:55;5.39;72.30
64961;SHT31;51487;52.266;10.542;2023-03-17T02:27:34;5.39;72.40
64961;SHT31;51487;52.266;10.542;2023-03-17T02:30:00;5.37;72.46
64961;SHT31;51487;52.266;10.542;2023-03-17T02:32:26;5.41;72.67
64961;SHT31;51487;52.266;10.542;2023-03-17T02:34:52;5.41;72.51
64961;SHT31;51487;52.266;10.542;2023-03-17T02:37:18;5.44;72.47
64961;SHT31;51487;52.266;10.542;2023-03-17T02:39:45;5.43;72.36
64961;SHT31;51487;52.266;10.542;2023-03-17T02:42:12;5.47;72.00
64961;SHT31;51487;52.266;10.542;2023-03-17T02:44:38;5.57;71.85
64961;SHT31;51487;52.266;10.542;2023-03-17T02:47:05;5.48;71.93
64961;SHT31;51487;52.266;10.542;2023-03-17T02:49:33;5.47;72.09
64961;SHT31;51487;52.266;10.542;2023-03-17T02:51:59;5.40;72.43
64961;SHT31;51487;52.266;10.542;2023-03-17T02:54:25;5.40;72.38
64961;SHT31;51487;52.266;10.542;2023-03-17T02:56:51;5.39;72.35
64961;SHT31;51487;52.266;10.542;2023-03-17T02:59:17;5.43;72.38
64961;SHT31;51487;52.266;10.542;2023-03-17T03:01:42;5.47;72.41
64961;SHT31;51487;52.266;10.542;2023-03-17T03:04:08;5.47;72.10
64961;SHT31;51487;52.266;10.542;2023-03-17T03:06:34;5.52;72.02
64961;SHT31;51487;52.266;10.542;2023-03-17T03:09:01;5.48;72.01
64961;SHT31;51487;52.266;10.542;2023-03-17T03:11:28;5.50;72.05
64961;SHT31;51487;52.266;10.542;2023-03-17T03:13:53;5.55;72.06
64961;SHT31;51487;52.266;10.542;2023-03-17T03:16:19;5.51;72.38
64961;SHT31;51487;52.266;10.542;2023-03-17T03:18:45;5.48;72.05
64961;SHT31;51487;52.266;10.542;2023-03-17T03:21:10;5.46;72.40
64961;SHT31;51487;52.266;10.542;2023-03-17T03:23:36;5.43;72.29
64961;SHT31;51487;52.266;10.542;2023-03-17T03:26:02;5.40;72.53
64961;SHT31;51487;52.266;10.542;2023-03-17T03:28:28;5.39;72.37
64961;SHT31;51487;52.266;10.542;2023-03-17T03:30:54;5.41;72.27
64961;SHT31;51487;52.266;10.542;2023-03-17T03:33:19;5.43;72.21
64961;SHT31;51487;52.266;10.542;2023-03-17T03:35:45;5.41;72.52
64961;SHT31;51487;52.266;10.542;2023-03-17T03:38:12;5.46;72.28
64961;SHT31;51487;52.266;10.542;2023-03-17T03:40:38;5.48;71.81
64961;SHT31;51487;52.266;10.542;2023-03-17T03:43:04;5.57;71.69
64961;SHT31;51487;52.266;10.542;2023-03-17T03:45:30;5.62;71.65
64961;SHT31;51487;52.266;10.542;2023-03-17T03:47:56;5.60;71.58
64961;SHT31;51487;52.266;10.542;2023-03-17T03:50:23;5.57;71.51
64961;SHT31;51487;52.266;10.542;2023-03-17T03:52:48;5.62;71.80
64961;SHT31;51487;52.266;10.542;2023-03-17T03:55:15;5.64;72.32
64961;SHT31;51487;52.266;10.542;2023-03-17T03:57:41;5.67;71.85
64961;SHT31;51487;52.266;10.542;2023-03-17T04:00:09;5.58;71.43
64961;SHT31;51487;52.266;10.542;2023-03-17T04:02:35;5.54;71.65
64961;SHT31;51487;52.266;10.542;2023-03-17T04:05:01;5.52;71.77
64961;SHT31;51487;52.266;10.542;2023-03-17T04:07:27;5.50;71.80
64961;SHT31;51487;52.266;10.542;2023-03-17T04:09:53;5.46;72.07
64961;SHT31;51487;52.266;10.542;2023-03-17T04:12:18;5.43;72.34
64961;SHT31;51487;52.266;10.542;2023-03-17T04:14:44;5.36;73.03
64961;SHT31;51487;52.266;10.542;2023-03-17T04:17:11;5.31;73.07
64961;SHT31;51487;52.266;10.542;2023-03-17T04:19:37;5.30;73.24
64961;SHT31;51487;52.266;10.542;2023-03-17T04:22:05;5.29;73.75
64961;SHT31;51487;52.266;10.542;2023-03-17T04:24:32;5.30;74.11
64961;SHT31;51487;52.266;10.542;2023-03-17T04:26:59;5.10;74.44
64961;SHT31;51487;52.266;10.542;2023-03-17T04:29:25;4.99;74.58
64961;SHT31;51487;52.266;10.542;2023-03-17T04:31:51;5.02;74.66
64961;SHT31;51487;52.266;10.542;2023-03-17T04:34:18;4.93;75.31
64961;SHT31;51487;52.266;10.542;2023-03-17T04:36:46;4.83;75.47
64961;SHT31;51487;52.266;10.542;2023-03-17T04:39:12;4.73;75.73
64961;SHT31;51487;52.266;10.542;2023-03-17T04:41:38;4.67;76.08
64961;SHT31;51487;52.266;10.542;2023-03-17T04:44:04;4.62;76.35
64961;SHT31;51487;52.266;10.542;2023-03-17T04:46:30;4.55;76.46
64961;SHT31;51487;52.266;10.542;2023-03-17T04:48:56;4.52;76.66
64961;SHT31;51487;52.266;10.542;2023-03-17T04:51:22;4.44;76.74
64961;SHT31;51487;52.266;10.542;2023-03-17T04:53:48;4.45;76.75
64961;SHT31;51487;52.266;10.542;2023-03-17T04:56:14;4.44;76.69
64961;SHT31;51487;52.266;10.542;2023-03-17T04:58:41;4.41;76.76
64961;SHT31;51487;52.266;10.542;2023-03-17T05:01:07;4.40;76.67
64961;SHT31;51487;52.266;10.542;2023-03-17T05:03:33;4.38;76.93
64961;SHT31;51487;52.266;10.542;2023-03-17T05:06:00;4.33;76.93
64961;SHT31;51487;52.266;10.542;2023-03-17T05:08:26;4.36;77.22
64961;SHT31;51487;52.266;10.542;2023-03-17T05:10:56;4.34;77.02
64961;SHT31;51487;52.266;10.542;2023-03-17T05:13:23;4.27;76.99
64961;SHT31;51487;52.266;10.542;2023-03-17T05:15:52;4.29;76.96
64961;SHT31;51487;52.266;10.542;2023-03-17T05:18:20;4.25;77.09
64961;SHT31;51487;52.266;10.542;2023-03-17T05:20:46;4.20;77.42
64961;SHT31;51487;52.266;10.542;2023-03-17T05:23:11;4.23;77.30
64961;SHT31;51487;52.266;10.542;2023-03-17T05:25:37;4.24;76.96
64961;SHT31;51487;52.266;10.542;2023-03-17T05:28:04;4.31;76.74
64961;SHT31;51487;52.266;10.542;2023-03-17T05:30:31;4.29;76.46
64961;SHT31;51487;52.266;10.542;2023-03-17T05:32:57;4.29;76.33
64961;SHT31;51487;52.266;10.542;2023-03-17T05:35:24;4.38;76.00
64961;SHT31;51487;52.266;10.542;2023-03-17T05:37:49;4.40;75.66
64961;SHT31;51487;52.266;10.542;2023-03-17T05:40:15;4.47;75.41
64961;SHT31;51487;52.266;10.542;2023-03-17T05:42:41;4.55;74.86
64961;SHT31;51487;52.266;10.542;2023-03-17T05:45:07;4.57;74.80
64961;SHT31;51487;52.266;10.542;2023-03-17T05:47:33;4.61;74.51
64961;SHT31;51487;52.266;10.542;2023-03-17T05:50:00;4.65;74.19
64961;SHT31;51487;52.266;10.542;2023-03-17T05:52:26;4.67;74.09
64961;SHT31;51487;52.266;10.542;2023-03-17T05:54:53;4.71;74.15
64961;SHT31;51487;52.266;10.542;2023-03-17T05:57:20;4.73;74.06
64961;SHT31;51487;52.266;10.542;2023-03-17T05:59:46;4.81;73.76
64961;SHT31;51487;52.266;10.542;2023-03-17T06:02:12;4.95;73.19
64961;SHT31;51487;52.266;10.542;2023-03-17T06:04:39;5.13;72.80
64961;SHT31;51487;52.266;10.542;2023-03-17T06:07:05;5.13;73.12
64961;SHT31;51487;52.266;10.542;2023-03-17T06:09:32;5.24;72.64
64961;SHT31;51487;52.266;10.542;2023-03-17T06:11:58;5.27;72.73
64961;SHT31;51487;52.266;10.542;2023-03-17T06:14:24;5.33;72.42
64961;SHT31;51487;52.266;10.542;2023-03-17T06:16:50;5.36;72.19
64961;SHT31;51487;52.266;10.542;2023-03-17T06:19:16;5.29;72.40
64961;SHT31;51487;52.266;10.542;2023-03-17T06:21:41;5.39;72.10
64961;SHT31;51487;52.266;10.542;2023-03-17T06:24:07;5.47;72.00
64961;SHT31;51487;52.266;10.542;2023-03-17T06:26:34;5.48;72.03
64961;SHT31;51487;52.266;10.542;2023-03-17T06:29:02;5.60;71.78
64961;SHT31;51487;52.266;10.542;2023-03-17T06:31:28;5.55;71.71
64961;SHT31;51487;52.266;10.542;2023-03-17T06:33:54;5.57;71.74
64961;SHT31;51487;52.266;10.542;2023-03-17T06:36:20;5.57;72.02
64961;SHT31;51487;52.266;10.542;2023-03-17T06:38:45;5.68;71.75
64961;SHT31;51487;52.266;10.542;2023-03-17T06:41:11;5.84;71.27
64961;SHT31;51487;52.266;10.542;2023-03-17T06:43:37;5.75;71.34
64961;SHT31;51487;52.266;10.542;2023-03-17T06:46:03;5.74;71.31
64961;SHT31;51487;52.266;10.542;2023-03-17T06:48:31;5.82;71.41
64961;SHT31;51487;52.266;10.542;2023-03-17T06:50:58;5.79;71.61
64961;SHT31;51487;52.266;10.542;2023-03-17T06:53:24;5.87;71.43
64961;SHT31;51487;52.266;10.542;2023-03-17T06:55:50;5.98;71.21
64961;SHT31;51487;52.266;10.542;2023-03-17T06:58:15;6.02;70.85
64961;SHT31;51487;52.266;10.542;2023-03-17T07:00:41;6.09;70.61
64961;SHT31;51487;52.266;10.542;2023-03-17T07:03:10;6.10;70.79
64961;SHT31;51487;52.266;10.542;2023-03-17T07:05:36;6.18;70.63
64961;SHT31;51487;52.266;10.542;2023-03-17T07:08:04;6.12;70.70
64961;SHT31;51487;52.266;10.542;2023-03-17T07:10:30;6.12;70.68
64961;SHT31;51487;52.266;10.542;2023-03-17T07:12:57;6.08;70.95
64961;SHT31;51487;52.266;10.542;2023-03-17T07:15:23;6.06;70.99
64961;SHT31;51487;52.266;10.542;2023-03-17T07:17:49;6.13;71.05
64961;SHT31;51487;52.266;10.542;2023-03-17T07:20:15;6.19;70.89
64961;SHT31;51487;52.266;10.542;2023-03-17T07:22:41;6.34;70.58
64961;SHT31;51487;52.266;10.542;2023-03-17T07:25:07;6.44;70.30
64961;SHT31;51487;52.266;10.542;2023-03-17T07:27:34;6.47;70.30
64961;SHT31;51487;52.266;10.542;2023-03-17T07:30:00;6.56;70.37
64961;SHT31;51487;52.266;10.542;2023-03-17T07:32:29;6.47;70.14
64961;SHT31;51487;52.266;10.542;2023-03-17T07:34:56;6.63;70.10
64961;SHT31;51487;52.266;10.542;2023-03-17T07:37:22;6.66;70.08
64961;SHT31;51487;52.266;10.542;2023-03-17T07:39:48;6.71;70.06
64961;SHT31;51487;52.266;10.542;2023-03-17T07:42:15;6.80;69.88
64961;SHT31;51487;52.266;10.542;2023-03-17T07:44:42;6.92;69.76
64961;SHT31;51487;52.266;10.542;2023-03-17T07:47:09;6.94;69.64
64961;SHT31;51487;52.266;10.542;2023-03-17T07:49:37;7.04;69.87
64961;SHT31;51487;52.266;10.542;2023-03-17T07:52:02;7.11;69.44
64961;SHT31;51487;52.266;10.542;2023-03-17T07:54:28;7.25;68.94
64961;SHT31;51487;52.266;10.542;2023-03-17T07:56:54;7.33;68.87
64961;SHT31;51487;52.266;10.542;2023-03-17T07:59:20;7.45;68.55
64961;SHT31;51487;52.266;10.542;2023-03-17T08:01:46;7.49;68.33
64961;SHT31;51487;52.266;10.542;2023-03-17T08:04:12;7.63;68.34
64961;SHT31;51487;52.266;10.542;2023-03-17T08:06:40;7.65;68.29
64961;SHT31;51487;52.266;10.542;2023-03-17T08:09:08;7.76;68.20
64961;SHT31;51487;52.266;10.542;2023-03-17T08:11:35;7.86;67.94
64961;SHT31;51487;52.266;10.542;2023-03-17T08:14:03;7.88;67.81
64961;SHT31;51487;52.266;10.542;2023-03-17T08:16:29;8.02;67.81
64961;SHT31;51487;52.266;10.542;2023-03-17T08:18:55;8.14;67.34
64961;SHT31;51487;52.266;10.542;2023-03-17T08:21:21;8.31;66.88
64961;SHT31;51487;52.266;10.542;2023-03-17T08:23:46;8.52;66.34
64961;SHT31;51487;52.266;10.542;2023-03-17T08:26:12;8.72;66.00
64961;SHT31;51487;52.266;10.542;2023-03-17T08:28:39;8.81;66.06
64961;SHT31;51487;52.266;10.542;2023-03-17T08:31:12;8.83;65.78
64961;SHT31;51487;52.266;10.542;2023-03-17T08:33:39;8.93;65.57
64961;SHT31;51487;52.266;10.542;2023-03-17T08:36:07;8.91;65.74
64961;SHT31;51487;52.266;10.542;2023-03-17T08:38:39;9.14;65.24
64961;SHT31;51487;52.266;10.542;2023-03-17T08:41:08;9.27;64.90
64961;SHT31;51487;52.266;10.542;2023-03-17T08:43:36;9.36;65.07
64961;SHT31;51487;52.266;10.542;2023-03-17T08:46:12;9.49;65.06
64961;SHT31;51487;52.266;10.542;2023-03-17T08:48:39;9.54;64.75
64961;SHT31;51487;52.266;10.542;2023-03-17T08:51:05;9.68;64.56
64961;SHT31;51487;52.266;10.542;2023-03-17T08:53:32;9.81;64.28
64961;SHT31;51487;52.266;10.542;2023-03-17T08:56:00;9.92;63.96
64961;SHT31;51487;52.266;10.542;2023-03-17T08:58:26;9.99;64.01
64961;SHT31;51487;52.266;10.542;2023-03-17T09:00:52;10.03;64.08
64961;SHT31;51487;52.266;10.542;2023-03-17T09:03:19;10.10;64.40
64961;SHT31;51487;52.266;10.542;2023-03-17T09:05:47;10.14;64.16
64961;SHT31;51487;52.266;10.542;2023-03-17T09:08:13;10.23;64.44
64961;SHT31;51487;52.266;10.542;2023-03-17T09:10:38;10.24;64.50
64961;SHT31;51487;52.266;10.542;2023-03-17T09:13:04;10.40;64.34
64961;SHT31;51487;52.266;10.542;2023-03-17T09:15:31;10.45;63.64
64961;SHT31;51487;52.266;10.542;2023-03-17T09:17:58;10.54;63.41
64961;SHT31;51487;52.266;10.542;2023-03-17T09:20:24;10.62;63.76
64961;SHT31;51487;52.266;10.542;2023-03-17T09:22:51;10.71;63.82
64961;SHT31;51487;52.266;10.542;2023-03-17T09:25:17;10.83;63.22
64961;SHT31;51487;52.266;10.542;2023-03-17T09:27:43;10.96;62.63
64961;SHT31;51487;52.266;10.542;2023-03-17T09:30:10;11.03;62.33
64961;SHT31;51487;52.266;10.542;2023-03-17T09:32:39;11.02;61.60
64961;SHT31;51487;52.266;10.542;2023-03-17T09:35:05;11.08;62.18
64961;SHT31;51487;52.266;10.542;2023-03-17T09:37:31;11.16;62.72
64961;SHT31;51487;52.266;10.542;2023-03-17T09:39:58;11.16;62.18
64961;SHT31;51487;52.266;10.542;2023-03-17T09:45:38;11.36;62.90
64961;SHT31;51487;52.266;10.542;2023-03-17T09:48:52;11.30;63.33
64961;SHT31;51487;52.266;10.542;2023-03-17T09:51:24;11.39;63.12
64961;SHT31;51487;52.266;10.542;2023-03-17T09:53:57;11.50;62.77
64961;SHT31;51487;52.266;10.542;2023-03-17T09:56:30;11.56;62.42
64961;SHT31;51487;52.266;10.542;2023-03-17T09:59:06;11.67;62.22
64961;SHT31;51487;52.266;10.542;2023-03-17T10:01:33;11.74;61.83
64961;SHT31;51487;52.266;10.542;2023-03-17T10:03:58;11.95;61.78
64961;SHT31;51487;52.266;10.542;2023-03-17T10:06:35;11.94;61.92
64961;SHT31;51487;52.266;10.542;2023-03-17T10:09:44;12.06;61.82
64961;SHT31;51487;52.266;10.542;2023-03-17T10:15:10;12.33;62.51
64961;SHT31;51487;52.266;10.542;2023-03-17T10:17:41;12.45;62.33
64961;SHT31;51487;52.266;10.542;2023-03-17T10:22:49;12.61;61.99
64961;SHT31;51487;52.266;10.542;2023-03-17T10:25:22;12.81;61.58
64961;SHT31;51487;52.266;10.542;2023-03-17T10:27:56;13.01;61.12
64961;SHT31;51487;52.266;10.542;2023-03-17T10:30:23;13.07;61.34
64961;SHT31;51487;52.266;10.542;2023-03-17T10:32:49;13.12;61.11
64961;SHT31;51487;52.266;10.542;2023-03-17T10:35:17;13.22;61.13
64961;SHT31;51487;52.266;10.542;2023-03-17T10:37:45;13.35;60.93
64961;SHT31;51487;52.266;10.542;2023-03-17T10:40:37;13.42;60.42
64961;SHT31;51487;52.266;10.542;2023-03-17T10:43:05;13.56;60.51
64961;SHT31;51487;52.266;10.542;2023-03-17T10:45:37;13.72;60.13
64961;SHT31;51487;52.266;10.542;2023-03-17T10:48:13;13.80;60.24
64961;SHT31;51487;52.266;10.542;2023-03-17T10:50:41;13.91;60.00
64961;SHT31;51487;52.266;10.542;2023-03-17T10:53:19;14.05;60.04
64961;SHT31;51487;52.266;10.542;2023-03-17T10:55:56;14.07;59.80
64961;SHT31;51487;52.266;10.542;2023-03-17T10:58:46;14.23;59.61
64961;SHT31;51487;52.266;10.542;2023-03-17T11:03:52;14.41;59.49
64961;SHT31;51487;52.266;10.542;2023-03-17T11:06:30;14.52;59.15
64961;SHT31;51487;52.266;10.542;2023-03-17T11:09:07;14.64;58.59
64961;SHT31;51487;52.266;10.542;2023-03-17T11:11:46;14.76;57.68
64961;SHT31;51487;52.266;10.542;2023-03-17T11:14:15;14.84;56.88
64961;SHT31;51487;52.266;10.542;2023-03-17T11:17:53;14.99;56.16
64961;SHT31;51487;52.266;10.542;2023-03-17T11:21:07;15.26;54.90
64961;SHT31;51487;52.266;10.542;2023-03-17T11:29:23;15.26;54.80
64961;SHT31;51487;52.266;10.542;2023-03-17T11:35:32;15.40;54.63
64961;SHT31;51487;52.266;10.542;2023-03-17T11:38:25;15.36;53.79
64961;SHT31;51487;52.266;10.542;2023-03-17T11:43:55;15.33;53.58
64961;SHT31;51487;52.266;10.542;2023-03-17T11:46:28;15.29;53.96
64961;SHT31;51487;52.266;10.542;2023-03-17T11:49:05;15.36;52.93
64961;SHT31;51487;52.266;10.542;2023-03-17T11:57:34;15.49;53.09
64961;SHT31;51487;52.266;10.542;2023-03-17T12:00:05;15.51;52.96
64961;SHT31;51487;52.266;10.542;2023-03-17T12:07:44;15.65;52.80
64961;SHT31;51487;52.266;10.542;2023-03-17T12:10:32;15.71;52.53
64961;SHT31;51487;52.266;10.542;2023-03-17T12:13:22;15.81;51.77
64961;SHT31;51487;52.266;10.542;2023-03-17T12:15:59;15.81;52.32
64961;SHT31;51487;52.266;10.542;2023-03-17T12:18:56;15.90;51.78
64961;SHT31;51487;52.266;10.542;2023-03-17T12:21:36;16.13;51.43
64961;SHT31;51487;52.266;10.542;2023-03-17T12:24:17;16.12;50.90
64961;SHT31;51487;52.266;10.542;2023-03-17T12:32:08;16.21;51.31
64961;SHT31;51487;52.266;10.542;2023-03-17T12:34:48;16.33;51.76
64961;SHT31;51487;52.266;10.542;2023-03-17T12:37:16;16.28;51.99
64961;SHT31;51487;52.266;10.542;2023-03-17T12:40:12;16.36;51.79
64961;SHT31;51487;52.266;10.542;2023-03-17T12:42:50;16.43;52.54
64961;SHT31;51487;52.266;10.542;2023-03-17T12:48:48;16.64;51.77
64961;SHT31;51487;52.266;10.542;2023-03-17T12:54:32;16.94;51.35
64961;SHT31;51487;52.266;10.542;2023-03-17T12:57:09;17.00;51.16
64961;SHT31;51487;52.266;10.542;2023-03-17T12:59:41;17.08;51.00
64961;SHT31;51487;52.266;10.542;2023-03-17T13:04:52;17.36;50.79
64961;SHT31;51487;52.266;10.542;2023-03-17T13:07:32;17.45;50.79
64961;SHT31;51487;52.266;10.542;2023-03-17T13:13:05;17.61;50.97
64961;SHT31;51487;52.266;10.542;2023-03-17T13:18:28;17.75;50.52
64961;SHT31;51487;52.266;10.542;2023-03-17T13:21:12;17.85;50.01
64961;SHT31;51487;52.266;10.542;2023-03-17T13:24:18;17.91;49.94
64961;SHT31;51487;52.266;10.542;2023-03-17T13:27:00;17.91;50.44
64961;SHT31;51487;52.266;10.542;2023-03-17T13:29:42;17.87;50.73
64961;SHT31;51487;52.266;10.542;2023-03-17T13:34:47;17.85;50.32
64961;SHT31;51487;52.266;10.542;2023-03-17T13:37:30;17.83;50.60
64961;SHT31;51487;52.266;10.542;2023-03-17T13:40:11;17.87;47.92
64961;SHT31;51487;52.266;10.542;2023-03-17T13:42:42;17.76;43.82
64961;SHT31;51487;52.266;10.542;2023-03-17T13:45:45;17.75;42.61
64961;SHT31;51487;52.266;10.542;2023-03-17T13:48:34;17.90;41.88
64961;SHT31;51487;52.266;10.542;2023-03-17T13:53:39;17.80;42.06
64961;SHT31;51487;52.266;10.542;2023-03-17T13:59:05;17.76;42.90
64961;SHT31;51487;52.266;10.542;2023-03-17T14:01:38;17.75;42.35
64961;SHT31;51487;52.266;10.542;2023-03-17T14:04:15;17.79;42.84
64961;SHT31;51487;52.266;10.542;2023-03-17T14:06:44;17.75;43.04
64961;SHT31;51487;52.266;10.542;2023-03-17T14:09:32;17.76;42.84
64961;SHT31;51487;52.266;10.542;2023-03-17T14:12:03;17.86;42.68
64961;SHT31;51487;52.266;10.542;2023-03-17T14:17:35;17.79;42.08
64961;SHT31;51487;52.266;10.542;2023-03-17T14:20:25;17.70;42.36
64961;SHT31;51487;52.266;10.542;2023-03-17T14:23:01;17.59;42.09
64961;SHT31;51487;52.266;10.542;2023-03-17T14:25:38;17.53;42.73
64961;SHT31;51487;52.266;10.542;2023-03-17T14:28:11;17.59;42.71
64961;SHT31;51487;52.266;10.542;2023-03-17T14:30:38;17.55;42.94
64961;SHT31;51487;52.266;10.542;2023-03-17T14:33:13;17.66;42.51
64961;SHT31;51487;52.266;10.542;2023-03-17T14:35:42;17.65;42.01
64961;SHT31;51487;52.266;10.542;2023-03-17T14:40:50;17.45;43.09
64961;SHT31;51487;52.266;10.542;2023-03-17T14:43:23;17.49;42.74
64961;SHT31;51487;52.266;10.542;2023-03-17T14:46:06;17.42;42.49
64961;SHT31;51487;52.266;10.542;2023-03-17T14:48:40;17.45;42.72
64961;SHT31;51487;52.266;10.542;2023-03-17T14:51:26;17.36;42.44
64961;SHT31;51487;52.266;10.542;2023-03-17T14:53:57;17.25;42.54
64961;SHT31;51487;52.266;10.542;2023-03-17T14:56:40;17.17;43.10
64961;SHT31;51487;52.266;10.542;2023-03-17T14:59:21;17.19;42.77
64961;SHT31;51487;52.266;10.542;2023-03-17T15:01:56;17.12;42.93
64961;SHT31;51487;52.266;10.542;2023-03-17T15:04:32;17.08;43.24
64961;SHT31;51487;52.266;10.542;2023-03-17T15:07:04;16.92;44.14
64961;SHT31;51487;52.266;10.542;2023-03-17T15:09:38;16.94;43.35
64961;SHT31;51487;52.266;10.542;2023-03-17T15:14:38;16.92;43.31
64961;SHT31;51487;52.266;10.542;2023-03-17T15:17:30;16.91;43.58
64961;SHT31;51487;52.266;10.542;2023-03-17T15:20:11;16.87;44.12
64961;SHT31;51487;52.266;10.542;2023-03-17T15:22:58;16.90;44.08
64961;SHT31;51487;52.266;10.542;2023-03-17T15:25:38;16.84;43.86
64961;SHT31;51487;52.266;10.542;2023-03-17T15:28:18;16.90;43.95
64961;SHT31;51487;52.266;10.542;2023-03-17T15:30:47;16.83;44.42
64961;SHT31;51487;52.266;10.542;2023-03-17T15:35:55;16.77;45.53
64961;SHT31;51487;52.266;10.542;2023-03-17T15:38:22;16.77;45.91
64961;SHT31;51487;52.266;10.542;2023-03-17T15:40:48;16.66;46.35
64961;SHT31;51487;52.266;10.542;2023-03-17T15:43:16;16.59;46.39
64961;SHT31;51487;52.266;10.542;2023-03-17T15:45:42;16.50;47.02
64961;SHT31;51487;52.266;10.542;2023-03-17T15:48:22;16.50;46.48
64961;SHT31;51487;52.266;10.542;2023-03-17T15:50:50;16.53;46.89
64961;SHT31;51487;52.266;10.542;2023-03-17T15:53:16;16.46;47.07
64961;SHT31;51487;52.266;10.542;2023-03-17T15:55:42;16.34;47.23
64961;SHT31;51487;52.266;10.542;2023-03-17T15:58:07;16.36;47.35
64961;SHT31;51487;52.266;10.542;2023-03-17T16:00:33;16.36;47.38
64961;SHT31;51487;52.266;10.542;2023-03-17T16:03:29;16.19;49.29
64961;SHT31;51487;52.266;10.542;2023-03-17T16:05:53;16.15;50.65
64961;SHT31;51487;52.266;10.542;2023-03-17T16:08:18;16.12;51.40
64961;SHT31;51487;52.266;10.542;2023-03-17T16:10:45;15.95;52.04
64961;SHT31;51487;52.266;10.542;2023-03-17T16:13:11;15.92;51.39
64961;SHT31;51487;52.266;10.542;2023-03-17T16:15:40;15.87;51.45
64961;SHT31;51487;52.266;10.542;2023-03-17T16:18:13;15.85;51.17
64961;SHT31;51487;52.266;10.542;2023-03-17T16:20:52;15.75;51.42
64961;SHT31;51487;52.266;10.542;2023-03-17T16:23:26;15.74;51.72
64961;SHT31;51487;52.266;10.542;2023-03-17T16:25:53;15.58;52.54
64961;SHT31;51487;52.266;10.542;2023-03-17T16:28:23;15.55;52.71
64961;SHT31;51487;52.266;10.542;2023-03-17T16:30:52;15.54;53.06
64961;SHT31;51487;52.266;10.542;2023-03-17T16:33:32;15.40;53.66
64961;SHT31;51487;52.266;10.542;2023-03-17T16:36:00;15.39;54.18
64961;SHT31;51487;52.266;10.542;2023-03-17T16:38:29;15.32;54.45
64961;SHT31;51487;52.266;10.542;2023-03-17T16:41:07;15.26;54.80
64961;SHT31;51487;52.266;10.542;2023-03-17T16:43:36;15.14;55.30
64961;SHT31;51487;52.266;10.542;2023-03-17T16:46:05;15.03;55.84
64961;SHT31;51487;52.266;10.542;2023-03-17T16:48:31;14.99;56.17
64961;SHT31;51487;52.266;10.542;2023-03-17T16:50:57;14.89;56.57
64961;SHT31;51487;52.266;10.542;2023-03-17T16:53:23;14.81;57.22
64961;SHT31;51487;52.266;10.542;2023-03-17T16:55:52;14.75;57.27
64961;SHT31;51487;52.266;10.542;2023-03-17T16:58:31;14.74;57.21
64961;SHT31;51487;52.266;10.542;2023-03-17T17:01:11;14.63;57.59
64961;SHT31;51487;52.266;10.542;2023-03-17T17:03:37;14.54;57.56
64961;SHT31;51487;52.266;10.542;2023-03-17T17:06:04;14.49;57.73